createdAt,value
2022-08-17T00:00:10.221Z,25.50
2022-08-17T00:03:01.272Z,25.50
2022-08-17T00:05:38.763Z,25.40
2022-08-17T00:08:06.341Z,25.40
2022-08-17T00:10:33.609Z,25.40
2022-08-17T00:13:05.159Z,25.40
2022-08-17T00:15:32.479Z,25.30
2022-08-17T00:17:59.622Z,25.30
2022-08-17T00:20:30.459Z,25.30
2022-08-17T00:23:09.815Z,25.30
2022-08-17T00:25:37.261Z,25.30
2022-08-17T00:28:04.543Z,25.30
2022-08-17T00:30:53.235Z,25.20
2022-08-17T00:33:23.827Z,25.20
2022-08-17T00:35:51.879Z,25.20
2022-08-17T00:38:19.350Z,25.10
2022-08-17T00:40:58.994Z,25.10
2022-08-17T00:43:32.702Z,25.10
2022-08-17T00:46:02.672Z,25.10
2022-08-17T00:48:31.046Z,25.00
2022-08-17T00:51:44.202Z,25.00
2022-08-17T00:54:24.058Z,25.00
2022-08-17T00:56:56.920Z,25.00
2022-08-17T00:59:28.041Z,25.00
2022-08-17T01:01:55.792Z,25.00
2022-08-17T01:04:23.802Z,24.90
2022-08-17T01:06:55.200Z,24.90
2022-08-17T01:09:22.661Z,25.00
2022-08-17T01:11:52.281Z,25.00
2022-08-17T01:14:21.956Z,25.00
2022-08-17T01:16:51.390Z,25.00
2022-08-17T01:19:26.296Z,25.00
2022-08-17T01:22:28.974Z,24.90
2022-08-17T01:25:04.154Z,24.90
2022-08-17T01:27:31.763Z,24.90
2022-08-17T01:30:03.543Z,24.80
2022-08-17T01:32:30.961Z,24.80
2022-08-17T01:35:00.979Z,24.70
2022-08-17T01:37:34.673Z,24.70
2022-08-17T01:40:19.092Z,24.70
2022-08-17T01:42:52.119Z,24.70
2022-08-17T01:45:24.490Z,24.70
2022-08-17T01:47:52.761Z,24.70
2022-08-17T01:50:30.454Z,24.70
2022-08-17T01:53:04.650Z,24.70
2022-08-17T01:55:45.833Z,24.70
2022-08-17T01:58:13.364Z,24.70
2022-08-17T02:00:46.805Z,24.70
2022-08-17T02:03:27.455Z,24.70
2022-08-17T02:05:54.827Z,24.70
2022-08-17T02:08:39.268Z,24.70
2022-08-17T02:11:14.744Z,24.70
2022-08-17T02:13:43.049Z,24.80
2022-08-17T02:16:10.187Z,24.80
2022-08-17T02:18:37.860Z,24.80
2022-08-17T02:21:05.351Z,24.80
2022-08-17T02:23:35.651Z,24.80
2022-08-17T02:26:02.931Z,24.80
2022-08-17T02:28:30.301Z,24.80
2022-08-17T02:31:01.794Z,24.80
2022-08-17T02:33:42.934Z,24.80
2022-08-17T02:36:12.987Z,24.80
2022-08-17T02:38:41.238Z,24.80
2022-08-17T02:41:09.022Z,24.80
2022-08-17T02:43:36.141Z,24.80
2022-08-17T02:46:03.585Z,24.80
2022-08-17T02:48:32.063Z,24.80
2022-08-17T02:51:00.653Z,24.80
2022-08-17T02:53:35.806Z,24.80
2022-08-17T02:56:07.079Z,24.80
2022-08-17T02:58:35.815Z,24.90
2022-08-17T03:01:06.368Z,24.80
2022-08-17T03:03:34.422Z,24.90
2022-08-17T03:06:01.911Z,24.80
2022-08-17T03:08:29.321Z,24.90
2022-08-17T03:10:56.661Z,24.90
2022-08-17T03:13:27.636Z,24.90
2022-08-17T03:15:54.770Z,25.00
2022-08-17T03:18:25.380Z,25.00
2022-08-17T03:21:00.099Z,25.00
2022-08-17T03:23:29.505Z,24.90
2022-08-17T03:25:57.450Z,25.00
2022-08-17T03:28:25.626Z,25.00
2022-08-17T03:30:52.953Z,25.00
2022-08-17T03:33:20.351Z,25.00
2022-08-17T03:35:47.849Z,25.00
2022-08-17T03:38:17.401Z,25.00
2022-08-17T03:40:56.729Z,25.00
2022-08-17T03:43:28.814Z,25.00
2022-08-17T03:46:34.045Z,25.00
2022-08-17T03:49:21.188Z,25.00
2022-08-17T03:52:06.897Z,25.00
2022-08-17T03:54:52.515Z,25.00
2022-08-17T03:57:20.211Z,25.00
2022-08-17T03:59:48.008Z,25.00
2022-08-17T04:02:24.908Z,24.90
2022-08-17T04:04:52.616Z,25.00
2022-08-17T04:07:25.444Z,25.00
2022-08-17T04:09:52.614Z,25.00
2022-08-17T04:12:22.104Z,25.00
2022-08-17T04:14:51.823Z,25.00
2022-08-17T04:17:27.727Z,25.00
2022-08-17T04:19:56.120Z,25.10
2022-08-17T04:22:31.045Z,25.10
2022-08-17T04:25:15.317Z,25.10
2022-08-17T04:27:42.439Z,25.20
2022-08-17T04:30:10.420Z,25.20
2022-08-17T04:33:06.075Z,25.20
2022-08-17T04:35:40.861Z,25.20
2022-08-17T04:38:10.520Z,25.20
2022-08-17T04:40:56.831Z,25.20
2022-08-17T04:43:27.256Z,25.20
2022-08-17T04:46:00.342Z,25.30
2022-08-17T04:48:40.405Z,25.30
2022-08-17T04:51:15.040Z,25.30
2022-08-17T04:53:45.802Z,25.40
2022-08-17T04:56:21.747Z,25.40
2022-08-17T04:58:52.814Z,25.40
2022-08-17T05:01:23.995Z,25.50
2022-08-17T05:03:57.385Z,25.50
2022-08-17T05:06:25.395Z,25.50
2022-08-17T05:08:53.799Z,25.60
2022-08-17T05:11:26.836Z,25.60
2022-08-17T05:13:55.085Z,25.60
2022-08-17T05:16:24.122Z,25.60
2022-08-17T05:18:52.393Z,25.70
2022-08-17T05:21:21.640Z,25.80
2022-08-17T05:23:54.962Z,25.80
2022-08-17T05:26:27.404Z,25.80
2022-08-17T05:28:59.602Z,25.90
2022-08-17T05:31:29.459Z,25.90
2022-08-17T05:33:56.880Z,25.90
2022-08-17T05:36:43.212Z,25.90
2022-08-17T05:39:15.990Z,25.80
2022-08-17T05:41:46.808Z,25.80
2022-08-17T05:44:14.074Z,25.80
2022-08-17T05:46:45.830Z,25.80
2022-08-17T05:49:15.119Z,25.80
2022-08-17T05:52:04.202Z,25.80
2022-08-17T05:54:57.938Z,25.90
2022-08-17T05:57:39.601Z,25.80
2022-08-17T06:00:19.306Z,25.90
2022-08-17T06:02:56.818Z,25.80
2022-08-17T06:05:46.064Z,25.90
2022-08-17T06:08:24.581Z,25.80
2022-08-17T06:11:04.228Z,25.80
2022-08-17T06:14:03.292Z,25.80
2022-08-17T06:16:39.284Z,25.80
2022-08-17T06:19:16.427Z,25.80
2022-08-17T06:21:48.964Z,25.80
2022-08-17T06:24:27.574Z,25.80
2022-08-17T06:27:00.313Z,25.90
2022-08-17T06:29:59.303Z,26.00
2022-08-17T06:32:26.893Z,26.10
2022-08-17T06:34:54.550Z,26.30
2022-08-17T06:37:44.407Z,26.30
2022-08-17T06:40:45.939Z,26.50
2022-08-17T06:43:25.413Z,26.60
2022-08-17T06:46:06.746Z,26.70
2022-08-17T06:49:07.465Z,26.70
2022-08-17T06:51:47.997Z,26.80
2022-08-17T06:54:23.700Z,26.90
2022-08-17T06:57:18.855Z,27.00
2022-08-17T07:00:01.721Z,27.10
2022-08-17T07:03:02.326Z,27.20
2022-08-17T07:05:34.405Z,27.30
2022-08-17T07:08:18.928Z,27.40
2022-08-17T07:11:01.656Z,27.40
2022-08-17T07:13:42.138Z,27.50
2022-08-17T07:16:36.518Z,27.60
2022-08-17T07:19:06.157Z,27.60
2022-08-17T07:21:55.489Z,27.70
2022-08-17T07:24:31.671Z,27.80
2022-08-17T07:27:28.489Z,27.90
2022-08-17T07:30:11.178Z,28.10
2022-08-17T07:33:00.628Z,28.20
2022-08-17T07:35:37.792Z,28.30
2022-08-17T07:38:24.294Z,28.40
2022-08-17T07:41:01.276Z,28.50
2022-08-17T07:43:31.144Z,28.70
2022-08-17T07:46:37.990Z,28.90
2022-08-17T07:49:07.761Z,29.00
2022-08-17T07:52:48.063Z,29.20
2022-08-17T07:54:50.932Z,29.40
2022-08-17T07:57:26.645Z,29.60
2022-08-17T07:59:59.986Z,29.70
2022-08-17T08:02:39.136Z,29.70
2022-08-17T08:05:48.781Z,29.80
2022-08-17T08:08:46.552Z,30.00
2022-08-17T08:11:28.173Z,30.20
2022-08-17T08:13:55.610Z,30.50
2022-08-17T08:16:27.635Z,30.60
2022-08-17T08:18:58.587Z,30.70
2022-08-17T08:21:51.463Z,30.80
2022-08-17T08:24:49.605Z,30.80
2022-08-17T08:27:46.101Z,30.90
2022-08-17T08:30:21.475Z,31.00
2022-08-17T08:32:51.368Z,31.30
2022-08-17T08:35:32.921Z,31.50
2022-08-17T08:38:03.165Z,31.70
2022-08-17T08:40:51.920Z,31.80
2022-08-17T08:43:40.675Z,31.90
2022-08-17T08:46:23.047Z,31.80
2022-08-17T08:49:06.548Z,31.70
2022-08-17T08:51:48.314Z,31.60
2022-08-17T08:54:42.896Z,31.70
2022-08-17T08:57:25.453Z,31.90
2022-08-17T09:00:01.488Z,32.10
2022-08-17T09:02:56.271Z,32.30
2022-08-17T09:05:58.073Z,32.40
2022-08-17T09:09:04.533Z,32.50
2022-08-17T09:12:01.856Z,32.60
2022-08-17T09:14:44.881Z,32.70
2022-08-17T09:17:28.329Z,32.70
2022-08-17T09:20:28.142Z,32.70
2022-08-17T09:23:19.410Z,32.80
2022-08-17T09:25:51.472Z,33.00
2022-08-17T09:28:33.163Z,33.20
2022-08-17T09:31:08.020Z,33.20
2022-08-17T09:33:40.512Z,33.30
2022-08-17T09:36:26.153Z,33.30
2022-08-17T09:39:02.380Z,33.20
2022-08-17T09:41:48.666Z,33.20
2022-08-17T09:44:39.976Z,33.30
2022-08-17T09:47:21.904Z,33.60
2022-08-17T09:50:01.691Z,33.90
2022-08-17T09:52:30.717Z,34.00
2022-08-17T09:55:00.160Z,34.10
2022-08-17T09:57:46.240Z,34.10
2022-08-17T10:00:27.660Z,34.10
2022-08-17T10:03:26.089Z,34.20
2022-08-17T10:06:00.257Z,34.30
2022-08-17T10:08:48.036Z,34.50
2022-08-17T10:11:33.327Z,34.70
2022-08-17T10:14:36.050Z,34.80
2022-08-17T10:17:38.928Z,35.00
2022-08-17T10:21:13.685Z,35.10
2022-08-17T10:24:00.841Z,35.10
2022-08-17T10:26:55.681Z,35.10
2022-08-17T10:29:49.035Z,35.20
2022-08-17T10:32:32.933Z,35.40
2022-08-17T10:35:14.735Z,35.40
2022-08-17T10:37:49.027Z,35.40
2022-08-17T10:40:45.619Z,35.30
2022-08-17T10:43:37.179Z,35.30
2022-08-17T10:46:30.358Z,35.20
2022-08-17T10:49:21.857Z,35.40
2022-08-17T10:52:13.458Z,35.40
2022-08-17T10:54:47.849Z,35.40
2022-08-17T10:57:27.203Z,35.40
2022-08-17T10:59:56.807Z,35.40
2022-08-17T11:02:49.604Z,35.50
2022-08-17T11:05:43.982Z,35.40
2022-08-17T11:08:26.591Z,35.50
2022-08-17T11:11:23.384Z,35.50
2022-08-17T11:14:17.655Z,35.50
2022-08-17T11:16:48.140Z,35.50
2022-08-17T11:19:44.373Z,35.60
2022-08-17T11:22:22.773Z,35.70
2022-08-17T11:24:53.808Z,35.80
2022-08-17T11:27:30.512Z,35.80
2022-08-17T11:30:06.206Z,35.90
2022-08-17T11:32:54.851Z,35.80
2022-08-17T11:35:22.436Z,35.90
2022-08-17T11:38:16.374Z,35.90
2022-08-17T11:41:14.716Z,35.80
2022-08-17T11:43:56.029Z,35.60
2022-08-17T11:47:19.887Z,35.60
2022-08-17T11:50:36.945Z,35.70
2022-08-17T11:53:05.560Z,36.00
2022-08-17T11:55:40.527Z,36.00
2022-08-17T11:58:31.489Z,35.90
2022-08-17T12:01:32.616Z,35.80
2022-08-17T12:04:30.786Z,35.70
2022-08-17T12:07:07.290Z,35.80
2022-08-17T12:09:41.181Z,35.90
2022-08-17T12:12:16.848Z,36.00
2022-08-17T12:15:10.009Z,36.20
2022-08-17T12:17:40.915Z,36.30
2022-08-17T12:20:33.490Z,36.40
2022-08-17T12:23:09.669Z,36.50
2022-08-17T12:25:44.038Z,36.60
2022-08-17T12:28:27.652Z,36.60
2022-08-17T12:31:02.774Z,36.40
2022-08-17T12:33:30.634Z,36.20
2022-08-17T12:36:04.233Z,36.10
2022-08-17T12:38:35.182Z,36.00
2022-08-17T12:41:23.041Z,36.00
2022-08-17T12:44:04.728Z,36.00
2022-08-17T12:46:49.892Z,36.00
2022-08-17T12:49:31.987Z,36.10
2022-08-17T12:52:08.090Z,36.10
2022-08-17T12:55:05.696Z,36.20
2022-08-17T12:57:38.571Z,36.20
2022-08-17T13:00:12.447Z,36.20
2022-08-17T13:03:00.534Z,36.10
2022-08-17T13:05:34.136Z,36.00
2022-08-17T13:08:06.014Z,35.80
2022-08-17T13:10:36.087Z,35.70
2022-08-17T13:13:17.868Z,35.70
2022-08-17T13:15:57.243Z,35.70
2022-08-17T13:18:36.801Z,35.70
2022-08-17T13:21:04.574Z,35.80
2022-08-17T13:23:33.696Z,35.80
2022-08-17T13:26:07.248Z,35.80
2022-08-17T13:28:36.851Z,35.90
2022-08-17T13:31:27.947Z,36.00
2022-08-17T13:34:14.848Z,36.10
2022-08-17T13:36:43.722Z,36.00
2022-08-17T13:39:20.219Z,36.00
2022-08-17T13:41:49.211Z,36.00
2022-08-17T13:44:37.816Z,35.80
2022-08-17T13:47:27.209Z,35.70
2022-08-17T13:49:55.716Z,35.50
2022-08-17T13:52:39.042Z,35.40
2022-08-17T13:55:17.800Z,35.40
2022-08-17T13:58:04.147Z,35.40
2022-08-17T14:00:36.509Z,35.40
2022-08-17T14:03:06.757Z,35.40
2022-08-17T14:05:36.846Z,35.30
2022-08-17T14:08:06.995Z,35.30
2022-08-17T14:10:36.598Z,35.20
2022-08-17T14:13:04.555Z,35.20
2022-08-17T14:15:55.078Z,35.10
2022-08-17T14:18:55.722Z,35.10
2022-08-17T14:21:10.143Z,35.20
2022-08-17T14:23:37.743Z,35.30
2022-08-17T14:26:05.386Z,35.30
2022-08-17T14:28:32.594Z,35.30
2022-08-17T14:31:01.938Z,35.40
2022-08-17T14:33:30.284Z,35.40
2022-08-17T14:35:58.179Z,35.30
2022-08-17T14:38:25.572Z,35.30
2022-08-17T14:40:53.489Z,35.30
2022-08-17T14:43:22.312Z,35.30
2022-08-17T14:45:49.586Z,35.30
2022-08-17T14:48:17.489Z,35.20
2022-08-17T14:50:46.271Z,35.20
2022-08-17T14:53:15.923Z,35.10
2022-08-17T14:55:46.859Z,35.10
2022-08-17T14:58:14.478Z,35.00
2022-08-17T15:00:43.820Z,35.00
2022-08-17T15:03:11.910Z,34.90
2022-08-17T15:05:40.126Z,34.80
2022-08-17T15:08:07.821Z,34.80
2022-08-17T15:10:35.723Z,34.70
2022-08-17T15:13:03.885Z,34.60
2022-08-17T15:15:31.260Z,34.50
2022-08-17T15:18:00.761Z,34.50
2022-08-17T15:20:29.998Z,34.40
2022-08-17T15:22:59.246Z,34.40
2022-08-17T15:25:32.079Z,34.40
2022-08-17T15:28:00.113Z,34.30
2022-08-17T15:30:28.157Z,34.30
2022-08-17T15:32:57.940Z,34.20
2022-08-17T15:35:29.186Z,34.20
2022-08-17T15:38:09.822Z,34.10
2022-08-17T15:40:44.466Z,34.10
2022-08-17T15:43:27.404Z,33.90
2022-08-17T15:46:10.944Z,33.80
2022-08-17T15:48:42.766Z,33.70
2022-08-17T15:51:11.587Z,33.60
2022-08-17T15:53:39.823Z,33.60
2022-08-17T15:56:08.278Z,33.50
2022-08-17T15:58:36.731Z,33.40
2022-08-17T16:01:16.490Z,33.30
2022-08-17T16:04:03.772Z,33.30
2022-08-17T16:06:34.667Z,33.20
2022-08-17T16:09:02.731Z,33.20
2022-08-17T16:11:29.995Z,33.10
2022-08-17T16:13:58.839Z,33.00
2022-08-17T16:16:26.251Z,32.90
2022-08-17T16:18:58.434Z,32.90
2022-08-17T16:21:26.769Z,32.80
2022-08-17T16:23:56.519Z,32.70
2022-08-17T16:26:24.095Z,32.60
2022-08-17T16:28:51.875Z,32.50
2022-08-17T16:31:19.019Z,32.40
2022-08-17T16:34:15.764Z,32.40
2022-08-17T16:36:35.340Z,32.30
2022-08-17T16:39:02.463Z,32.20
2022-08-17T16:41:45.387Z,32.20
2022-08-17T16:44:17.419Z,32.10
2022-08-17T16:46:46.384Z,32.10
2022-08-17T16:49:24.399Z,31.90
2022-08-17T16:52:03.471Z,31.90
2022-08-17T16:54:30.677Z,31.80
2022-08-17T16:56:58.137Z,31.80
2022-08-17T16:59:30.883Z,31.70
2022-08-17T17:02:04.997Z,31.60
2022-08-17T17:04:35.356Z,31.50
2022-08-17T17:07:33.859Z,31.30
2022-08-17T17:10:12.645Z,31.00
2022-08-17T17:13:03.095Z,30.90
2022-08-17T17:15:54.856Z,30.80
2022-08-17T17:18:38.417Z,30.60
2022-08-17T17:21:10.047Z,30.50
2022-08-17T17:23:58.380Z,30.40
2022-08-17T17:26:48.546Z,30.30
2022-08-17T17:29:47.191Z,30.30
2022-08-17T17:32:40.093Z,30.20
2022-08-17T17:35:25.292Z,30.10
2022-08-17T17:37:54.385Z,30.00
2022-08-17T17:40:27.825Z,29.40
2022-08-17T17:43:14.229Z,28.80
2022-08-17T17:45:46.345Z,28.00
2022-08-17T17:48:13.560Z,27.20
2022-08-17T17:52:06.859Z,26.70
2022-08-17T17:54:19.274Z,26.30
2022-08-17T17:56:58.510Z,25.90
2022-08-17T17:59:47.457Z,25.60
2022-08-17T18:02:39.962Z,25.30
2022-08-17T18:05:36.902Z,25.00
2022-08-17T18:08:34.068Z,24.80
2022-08-17T18:11:09.392Z,24.50
2022-08-17T18:13:44.374Z,24.30
2022-08-17T18:16:16.714Z,24.20
2022-08-17T18:18:48.239Z,24.00
2022-08-17T18:21:19.774Z,23.80
2022-08-17T18:23:54.610Z,23.80
2022-08-17T18:26:41.820Z,23.80
2022-08-17T18:29:14.178Z,23.90
2022-08-17T18:31:41.240Z,24.00
2022-08-17T18:37:16.086Z,24.00
2022-08-17T18:39:46.637Z,24.00
2022-08-17T18:42:26.538Z,24.10
2022-08-17T18:44:55.449Z,24.20
2022-08-17T18:47:27.797Z,24.20
2022-08-17T18:50:16.260Z,24.30
2022-08-17T18:52:43.537Z,24.30
2022-08-17T18:55:15.602Z,24.40
2022-08-17T18:58:17.812Z,24.40
2022-08-17T19:00:48.709Z,24.50
2022-08-17T19:03:15.937Z,24.50
2022-08-17T19:06:17.810Z,24.50
2022-08-17T19:08:45.116Z,24.40
2022-08-17T19:11:27.185Z,24.40
2022-08-17T19:14:08.243Z,24.40
2022-08-17T19:16:58.003Z,24.40
2022-08-17T19:19:54.319Z,24.40
2022-08-17T19:23:03.590Z,24.50
2022-08-17T19:25:38.214Z,24.60
2022-08-17T19:28:27.092Z,24.70
2022-08-17T19:31:02.096Z,24.70
2022-08-17T19:33:29.486Z,24.70
2022-08-17T19:36:11.612Z,24.70
2022-08-17T19:39:05.618Z,24.70
2022-08-17T19:42:11.688Z,24.70
2022-08-17T19:45:00.548Z,24.70
2022-08-17T19:47:53.273Z,24.60
2022-08-17T19:50:22.475Z,24.60
2022-08-17T19:53:09.967Z,24.60
2022-08-17T19:55:51.125Z,24.60
2022-08-17T19:58:42.788Z,24.50
2022-08-17T20:01:17.721Z,24.60
2022-08-17T20:03:44.939Z,24.50
2022-08-17T20:06:14.196Z,24.50
2022-08-17T20:08:59.139Z,24.50
2022-08-17T20:11:38.119Z,24.50
2022-08-17T20:14:19.883Z,24.50
2022-08-17T20:16:47.287Z,24.50
2022-08-17T20:19:31.518Z,24.50
2022-08-17T20:22:10.901Z,24.60
2022-08-17T20:25:00.948Z,24.60
2022-08-17T20:27:32.241Z,24.60
2022-08-17T20:30:01.469Z,24.60
2022-08-17T20:32:53.597Z,24.60
2022-08-17T20:35:30.410Z,24.70
2022-08-17T20:38:07.264Z,24.70
2022-08-17T20:40:54.637Z,24.70
2022-08-17T20:43:38.500Z,24.70
2022-08-17T20:46:20.768Z,24.70
2022-08-17T20:48:52.661Z,24.70
2022-08-17T20:52:01.578Z,24.70
2022-08-17T20:54:44.457Z,24.80
2022-08-17T20:57:40.895Z,24.80
2022-08-17T21:00:27.564Z,24.80
2022-08-17T21:03:23.221Z,24.80
2022-08-17T21:06:00.285Z,24.80
2022-08-17T21:08:32.335Z,24.80
2022-08-17T21:11:01.657Z,24.90
2022-08-17T21:13:39.519Z,24.90
2022-08-17T21:16:41.529Z,24.90
2022-08-17T21:19:18.334Z,25.00
2022-08-17T21:22:01.368Z,24.90
2022-08-17T21:25:06.362Z,24.90
2022-08-17T21:27:39.516Z,25.00
2022-08-17T21:30:10.057Z,25.00
2022-08-17T21:32:42.141Z,25.00
2022-08-17T21:35:23.192Z,25.00
2022-08-17T21:37:54.601Z,25.00
2022-08-17T21:40:29.172Z,25.00
2022-08-17T21:43:17.137Z,25.00
2022-08-17T21:45:56.723Z,25.00
2022-08-17T21:48:25.775Z,25.00
2022-08-17T21:51:18.251Z,25.00
2022-08-17T21:54:01.084Z,25.00
2022-08-17T21:56:39.813Z,25.00
2022-08-17T21:59:27.555Z,25.00
2022-08-17T22:02:05.846Z,25.00
2022-08-17T22:04:34.758Z,25.00
2022-08-17T22:07:08.098Z,24.90
2022-08-17T22:09:43.987Z,24.90
2022-08-17T22:12:20.117Z,24.80
2022-08-17T22:14:57.445Z,24.80
2022-08-17T22:17:27.767Z,24.70
2022-08-17T22:19:59.803Z,24.80
2022-08-17T22:23:09.093Z,24.70
2022-08-17T22:25:56.671Z,24.80
2022-08-17T22:28:41.191Z,24.70
2022-08-17T22:31:10.722Z,24.70
2022-08-17T22:33:41.913Z,24.60
2022-08-17T22:36:30.243Z,24.60
2022-08-17T22:39:10.163Z,24.60
2022-08-17T22:41:42.376Z,24.70
2022-08-17T22:44:24.603Z,24.70
2022-08-17T22:47:13.842Z,24.70
2022-08-17T22:49:57.938Z,24.80
2022-08-17T22:52:56.878Z,24.80
2022-08-17T22:55:43.280Z,24.80
2022-08-17T22:58:31.804Z,24.80
2022-08-17T23:01:23.386Z,24.80
2022-08-17T23:04:04.161Z,24.80
2022-08-17T23:06:34.991Z,24.80
2022-08-17T23:09:04.374Z,24.80
2022-08-17T23:11:48.920Z,24.70
2022-08-17T23:14:19.998Z,24.70
2022-08-17T23:16:49.086Z,24.70
2022-08-17T23:19:20.761Z,24.70
2022-08-17T23:21:49.229Z,24.70
2022-08-17T23:24:22.662Z,24.70
2022-08-17T23:26:50.083Z,24.70
2022-08-17T23:29:17.363Z,24.70
2022-08-17T23:31:44.531Z,24.70
2022-08-17T23:34:13.816Z,24.70
2022-08-17T23:36:41.241Z,24.70
2022-08-17T23:39:08.544Z,24.60
2022-08-17T23:41:39.127Z,24.60
2022-08-17T23:44:07.206Z,24.60
2022-08-17T23:46:34.757Z,24.60
2022-08-17T23:49:03.277Z,24.60
2022-08-17T23:51:38.435Z,24.60
2022-08-17T23:54:11.817Z,24.60
2022-08-17T23:56:48.791Z,24.50
2022-08-17T23:59:17.927Z,24.50
